Terminal Aerodrome Forecast
Issued by NWS

Home | Current Version | Previous Version | Text Only | Print | Product List | Glossary Off
Versions: 1 2 3 4 5 6 7 8 9 10 11 12 13 14

000
FTUS43 KMPX 201100
TAFAXN
TAF
KAXN 201120Z 2012/2112 08005KT P6SM SKC
     FM201800 11006KT P6SM SCT250
     FM210400 12007KT P6SM SCT100 BKN250
     FM210800 23007KT P6SM BKN100=

USA.gov is the U.S. government's official web portal to all federal, state and local government web resources and services.